createdAt,value
2023-02-20T00:00:32.561Z,5.48
2023-02-20T00:02:59.673Z,5.54
2023-02-20T00:05:26.147Z,5.54
2023-02-20T00:07:52.561Z,5.55
2023-02-20T00:10:19.159Z,5.57
2023-02-20T00:12:45.856Z,5.60
2023-02-20T00:15:16.071Z,5.59
2023-02-20T00:17:46.817Z,5.62
2023-02-20T00:20:22.279Z,5.67
2023-02-20T00:22:49.387Z,5.71
2023-02-20T00:25:21.329Z,5.75
2023-02-20T00:27:48.122Z,5.75
2023-02-20T00:30:19.815Z,5.75
2023-02-20T00:32:47.721Z,5.76
2023-02-20T00:35:16.841Z,5.77
2023-02-20T00:37:43.980Z,5.80
2023-02-20T00:40:10.895Z,5.79
2023-02-20T00:42:37.563Z,5.77
2023-02-20T00:45:04.857Z,5.76
2023-02-20T00:47:32.341Z,5.82
2023-02-20T00:49:58.722Z,5.80
2023-02-20T00:52:25.548Z,5.79
2023-02-20T00:54:52.064Z,5.76
2023-02-20T00:57:18.736Z,5.75
2023-02-20T00:59:45.133Z,5.75
2023-02-20T01:02:11.544Z,5.81
2023-02-20T01:04:38.358Z,5.74
2023-02-20T01:07:04.722Z,5.72
2023-02-20T01:09:31.266Z,5.77
2023-02-20T01:11:57.662Z,5.76
2023-02-20T01:14:24.162Z,5.75
2023-02-20T01:16:52.584Z,5.72
2023-02-20T01:19:21.844Z,5.72
2023-02-20T01:21:48.376Z,5.71
2023-02-20T01:24:15.890Z,5.71
2023-02-20T01:26:47.238Z,5.67
2023-02-20T01:29:14.110Z,5.70
2023-02-20T01:31:40.595Z,5.66
2023-02-20T01:34:07.074Z,5.69
2023-02-20T01:36:33.851Z,5.69
2023-02-20T01:39:00.182Z,5.61
2023-02-20T01:41:26.598Z,5.66
2023-02-20T01:43:52.966Z,5.62
2023-02-20T01:46:31.583Z,5.61
2023-02-20T01:49:04.093Z,5.53
2023-02-20T01:51:35.006Z,5.49
2023-02-20T01:54:01.929Z,5.52
2023-02-20T01:56:28.494Z,5.54
2023-02-20T01:58:55.412Z,5.47
2023-02-20T02:01:21.862Z,5.53
2023-02-20T02:03:54.183Z,5.62
2023-02-20T02:06:20.996Z,5.71
2023-02-20T02:08:47.513Z,5.82
2023-02-20T02:11:17.659Z,5.87
2023-02-20T02:13:44.373Z,5.95
2023-02-20T02:16:19.266Z,6.06
2023-02-20T02:18:54.576Z,6.12
2023-02-20T02:21:30.651Z,6.14
2023-02-20T02:24:30.745Z,6.21
2023-02-20T02:27:31.749Z,6.29
2023-02-20T02:30:42.942Z,6.30
2023-02-20T02:33:32.540Z,6.30
2023-02-20T02:36:20.652Z,6.34
2023-02-20T02:39:07.248Z,6.38
2023-02-20T02:41:44.452Z,6.41
2023-02-20T02:44:21.744Z,6.42
2023-02-20T02:47:03.543Z,6.41
2023-02-20T02:49:51.297Z,6.44
2023-02-20T02:52:20.751Z,6.55
2023-02-20T02:54:49.834Z,6.55
2023-02-20T02:57:27.402Z,6.51
2023-02-20T02:59:59.706Z,6.51
2023-02-20T03:02:30.745Z,6.54
2023-02-20T03:05:00.931Z,6.56
2023-02-20T03:07:28.677Z,6.60
2023-02-20T03:10:00.809Z,6.70
2023-02-20T03:12:27.477Z,6.70
2023-02-20T03:15:02.073Z,6.73
2023-02-20T03:17:34.226Z,6.67
2023-02-20T03:20:11.851Z,6.74
2023-02-20T03:22:44.977Z,6.84
2023-02-20T03:25:17.831Z,6.83
2023-02-20T03:27:51.977Z,6.88
2023-02-20T03:30:27.577Z,6.93
2023-02-20T03:33:02.246Z,6.87
2023-02-20T03:35:32.376Z,6.91
2023-02-20T03:38:02.681Z,6.93
2023-02-20T03:40:32.610Z,6.96
2023-02-20T03:43:04.009Z,7.00
2023-02-20T03:45:32.499Z,7.01
2023-02-20T03:48:05.881Z,7.00
2023-02-20T03:50:32.534Z,7.08
2023-02-20T03:53:00.927Z,7.08
2023-02-20T03:55:27.505Z,7.08
2023-02-20T03:57:57.532Z,7.10
2023-02-20T04:00:30.391Z,7.14
2023-02-20T04:03:01.005Z,7.14
2023-02-20T04:05:32.746Z,7.06
2023-02-20T04:08:02.258Z,7.09
2023-02-20T04:10:34.533Z,7.11
2023-02-20T04:13:03.354Z,7.16
2023-02-20T04:15:30.426Z,7.11
2023-02-20T04:18:07.691Z,7.18
2023-02-20T04:20:34.062Z,7.18
2023-02-20T04:23:09.577Z,7.24
2023-02-20T04:25:54.882Z,7.23
2023-02-20T04:28:22.071Z,7.22
2023-02-20T04:30:49.166Z,7.22
2023-02-20T04:33:18.651Z,7.27
2023-02-20T04:35:45.111Z,7.25
2023-02-20T04:38:12.072Z,7.30
2023-02-20T04:40:38.700Z,7.30
2023-02-20T04:43:05.367Z,7.27
2023-02-20T04:45:31.843Z,7.28
2023-02-20T04:47:58.363Z,7.27
2023-02-20T04:50:31.385Z,7.34
2023-02-20T04:52:59.056Z,7.34
2023-02-20T04:55:26.566Z,7.36
2023-02-20T04:57:53.867Z,7.29
2023-02-20T05:00:20.782Z,7.32
2023-02-20T05:02:47.317Z,7.36
2023-02-20T05:05:22.846Z,7.44
2023-02-20T05:07:53.627Z,7.46
2023-02-20T05:10:21.215Z,7.41
2023-02-20T05:12:47.762Z,7.42
2023-02-20T05:15:15.261Z,7.50
2023-02-20T05:17:41.959Z,7.51
2023-02-20T05:20:09.185Z,7.51
2023-02-20T05:22:35.638Z,7.52
2023-02-20T05:25:02.486Z,7.52
2023-02-20T05:27:28.959Z,7.53
2023-02-20T05:29:58.162Z,7.59
2023-02-20T05:32:28.071Z,7.63
2023-02-20T05:34:55.378Z,7.64
2023-02-20T05:37:25.057Z,7.61
2023-02-20T05:39:52.158Z,7.66
2023-02-20T05:42:18.832Z,7.65
2023-02-20T05:44:45.430Z,7.71
2023-02-20T05:47:14.314Z,7.74
2023-02-20T05:49:40.702Z,7.68
2023-02-20T05:52:08.309Z,7.75
2023-02-20T05:54:34.870Z,7.76
2023-02-20T05:57:02.243Z,7.74
2023-02-20T05:59:28.728Z,7.79
2023-02-20T06:02:00.089Z,7.86
2023-02-20T06:04:27.006Z,7.85
2023-02-20T06:06:53.674Z,7.83
2023-02-20T06:09:21.780Z,7.83
2023-02-20T06:11:50.968Z,7.83
2023-02-20T06:14:18.586Z,7.90
2023-02-20T06:16:45.417Z,7.91
2023-02-20T06:19:12.251Z,7.91
2023-02-20T06:21:38.923Z,7.89
2023-02-20T06:24:06.984Z,7.86
2023-02-20T06:26:39.852Z,7.86
2023-02-20T06:29:06.367Z,7.88
2023-02-20T06:31:32.991Z,7.93
2023-02-20T06:33:59.572Z,7.95
2023-02-20T06:36:30.736Z,7.94
2023-02-20T06:38:58.305Z,7.90
2023-02-20T06:41:26.843Z,7.90
2023-02-20T06:43:53.863Z,7.92
2023-02-20T06:46:20.524Z,7.96
2023-02-20T06:48:49.117Z,7.93
2023-02-20T06:51:20.871Z,7.88
2023-02-20T06:53:47.986Z,7.88
2023-02-20T06:56:16.854Z,7.95
2023-02-20T06:58:43.603Z,7.90
2023-02-20T07:01:09.989Z,7.90
2023-02-20T07:03:36.444Z,7.91
2023-02-20T07:06:02.910Z,7.91
2023-02-20T07:08:29.269Z,7.93
2023-02-20T07:10:55.728Z,7.93
2023-02-20T07:13:22.976Z,7.93
2023-02-20T07:15:49.786Z,7.93
2023-02-20T07:18:16.658Z,7.94
2023-02-20T07:20:44.102Z,7.95
2023-02-20T07:23:10.614Z,7.91
2023-02-20T07:25:36.982Z,7.98
2023-02-20T07:28:03.491Z,7.95
2023-02-20T07:30:29.929Z,7.98
2023-02-20T07:32:56.562Z,8.03
2023-02-20T07:35:22.998Z,8.04
2023-02-20T07:37:49.402Z,8.02
2023-02-20T07:40:15.832Z,8.05
2023-02-20T07:42:42.188Z,8.05
2023-02-20T07:45:10.537Z,8.05
2023-02-20T07:47:36.950Z,8.06
2023-02-20T07:50:03.789Z,8.10
2023-02-20T07:52:30.397Z,8.13
2023-02-20T07:54:56.732Z,8.11
2023-02-20T07:57:23.285Z,8.11
2023-02-20T07:59:49.685Z,8.16
2023-02-20T08:02:16.144Z,8.12
2023-02-20T08:04:43.721Z,8.13
2023-02-20T08:07:10.174Z,8.19
2023-02-20T08:09:36.637Z,8.17
2023-02-20T08:12:03.351Z,8.18
2023-02-20T08:14:32.196Z,8.19
2023-02-20T08:16:58.533Z,8.18
2023-02-20T08:19:25.073Z,8.25
2023-02-20T08:21:51.549Z,8.28
2023-02-20T08:24:18.148Z,8.25
2023-02-20T08:26:48.453Z,8.31
2023-02-20T08:29:16.717Z,8.35
2023-02-20T08:31:43.513Z,8.38
2023-02-20T08:34:09.899Z,8.37
2023-02-20T08:36:36.331Z,8.45
2023-02-20T08:39:02.745Z,8.44
2023-02-20T08:41:29.367Z,8.48
2023-02-20T08:43:56.005Z,8.48
2023-02-20T08:46:22.820Z,8.56
2023-02-20T08:48:51.473Z,8.67
2023-02-20T08:51:20.705Z,8.66
2023-02-20T08:53:47.211Z,8.75
2023-02-20T08:56:17.418Z,8.67
2023-02-20T08:58:43.847Z,8.68
2023-02-20T09:01:10.557Z,8.60
2023-02-20T09:03:36.916Z,8.56
2023-02-20T09:06:03.564Z,8.58
2023-02-20T09:08:29.958Z,8.57
2023-02-20T09:10:56.523Z,8.60
2023-02-20T09:13:23.049Z,8.66
2023-02-20T09:15:49.450Z,8.61
2023-02-20T09:18:15.921Z,8.64
2023-02-20T09:20:42.466Z,8.58
2023-02-20T09:23:10.866Z,8.62
2023-02-20T09:25:37.534Z,8.64
2023-02-20T09:28:04.526Z,8.64
2023-02-20T09:30:31.466Z,8.52
2023-02-20T09:32:57.853Z,8.59
2023-02-20T09:35:27.801Z,8.56
2023-02-20T09:37:54.742Z,8.56
2023-02-20T09:40:23.896Z,8.51
2023-02-20T09:43:00.764Z,8.48
2023-02-20T09:45:30.880Z,8.51
2023-02-20T09:48:11.383Z,8.55
2023-02-20T09:50:59.658Z,8.52
2023-02-20T09:53:35.231Z,8.51
2023-02-20T09:56:03.165Z,8.57
2023-02-20T09:58:50.289Z,8.60
2023-02-20T10:01:22.663Z,8.59
2023-02-20T10:04:09.973Z,8.63
2023-02-20T10:06:36.411Z,8.65
2023-02-20T10:09:04.308Z,8.67
2023-02-20T10:11:45.579Z,8.67
2023-02-20T10:14:21.686Z,8.67
2023-02-20T10:16:59.377Z,8.78
2023-02-20T10:19:37.226Z,8.74
2023-02-20T10:22:13.368Z,8.78
2023-02-20T10:25:08.326Z,8.80
2023-02-20T10:27:59.862Z,8.80
2023-02-20T10:30:29.879Z,8.83
2023-02-20T10:33:10.575Z,8.79
2023-02-20T10:35:42.974Z,8.76
2023-02-20T10:38:17.391Z,8.78
2023-02-20T10:40:46.618Z,8.75
2023-02-20T10:43:16.067Z,8.79
2023-02-20T10:46:21.647Z,8.79
2023-02-20T10:48:48.487Z,8.77
2023-02-20T10:51:14.834Z,8.82
2023-02-20T10:53:55.198Z,8.81
2023-02-20T10:56:26.921Z,8.79
2023-02-20T10:59:18.937Z,8.88
2023-02-20T11:01:49.326Z,8.82
2023-02-20T11:04:25.692Z,8.83
2023-02-20T11:06:57.142Z,8.85
2023-02-20T11:09:24.675Z,8.84
2023-02-20T11:11:53.862Z,8.89
2023-02-20T11:14:39.415Z,8.86
2023-02-20T11:17:22.423Z,8.83
2023-02-20T11:19:51.882Z,8.80
2023-02-20T11:22:37.456Z,8.87
2023-02-20T11:25:20.708Z,8.84
2023-02-20T11:27:51.206Z,8.84
2023-02-20T11:30:34.910Z,8.87
2023-02-20T11:33:06.339Z,8.89
2023-02-20T11:35:39.835Z,8.89
2023-02-20T11:38:15.606Z,8.91
2023-02-20T11:40:42.390Z,8.89
2023-02-20T11:43:25.294Z,8.88
2023-02-20T11:46:08.528Z,8.94
2023-02-20T11:48:35.076Z,8.95
2023-02-20T11:51:01.902Z,8.95
2023-02-20T11:53:30.815Z,8.96
2023-02-20T11:56:18.530Z,8.96
2023-02-20T11:58:48.160Z,9.02
2023-02-20T12:01:59.226Z,9.04
2023-02-20T12:04:27.276Z,9.09
2023-02-20T12:06:53.712Z,9.04
2023-02-20T12:09:25.128Z,9.11
2023-02-20T12:11:54.843Z,9.18
2023-02-20T12:14:21.284Z,9.12
2023-02-20T12:16:50.974Z,9.20
2023-02-20T12:19:37.664Z,9.20
2023-02-20T12:22:29.066Z,9.21
2023-02-20T12:24:55.478Z,9.21
2023-02-20T12:27:33.753Z,9.21
2023-02-20T12:30:07.800Z,9.25
2023-02-20T12:32:59.291Z,9.23
2023-02-20T12:35:31.781Z,9.28
2023-02-20T12:38:45.854Z,9.29
2023-02-20T12:41:49.626Z,9.27
2023-02-20T12:44:28.041Z,9.28
2023-02-20T12:47:27.858Z,9.34
2023-02-20T12:50:05.657Z,9.42
2023-02-20T12:53:08.496Z,9.50
2023-02-20T12:55:49.354Z,9.49
2023-02-20T12:58:35.141Z,9.47
2023-02-20T13:01:05.206Z,9.47
2023-02-20T13:03:46.939Z,9.50
2023-02-20T13:06:22.325Z,9.50
2023-02-20T13:09:05.205Z,9.54
2023-02-20T13:11:38.145Z,9.45
2023-02-20T13:14:13.529Z,9.53
2023-02-20T13:17:07.709Z,9.50
2023-02-20T13:19:40.675Z,9.47
2023-02-20T13:22:07.468Z,9.47
2023-02-20T13:24:37.038Z,9.49
2023-02-20T13:27:07.077Z,9.46
2023-02-20T13:29:57.278Z,9.46
2023-02-20T13:32:31.972Z,9.46
2023-02-20T13:35:32.986Z,9.50
2023-02-20T13:38:13.739Z,9.47
2023-02-20T13:40:44.232Z,9.38
2023-02-20T13:43:13.476Z,9.34
2023-02-20T13:45:43.032Z,9.40
2023-02-20T13:48:30.962Z,9.35
2023-02-20T13:51:18.817Z,9.38
2023-02-20T13:53:53.351Z,9.38
2023-02-20T13:56:29.507Z,9.42
2023-02-20T13:58:58.649Z,9.41
2023-02-20T14:01:25.591Z,9.37
2023-02-20T14:04:05.961Z,9.28
2023-02-20T14:06:32.758Z,9.25
2023-02-20T14:09:10.845Z,9.31
2023-02-20T14:11:39.607Z,9.33
2023-02-20T14:14:10.597Z,9.38
2023-02-20T14:16:40.864Z,9.34
2023-02-20T14:19:25.828Z,9.33
2023-02-20T14:21:52.468Z,9.32
2023-02-20T14:24:28.130Z,9.28
2023-02-20T14:26:55.353Z,9.19
2023-02-20T14:29:26.121Z,9.22
2023-02-20T14:31:55.705Z,9.26
2023-02-20T14:34:34.393Z,9.29
2023-02-20T14:37:22.121Z,9.22
2023-02-20T14:40:01.672Z,9.28
2023-02-20T14:42:28.329Z,9.25
2023-02-20T14:45:06.586Z,9.27
2023-02-20T14:47:33.166Z,9.29
2023-02-20T14:50:16.378Z,9.23
2023-02-20T14:52:43.599Z,9.28
2023-02-20T14:55:17.164Z,9.31
2023-02-20T14:57:43.672Z,9.32
2023-02-20T15:00:22.605Z,9.29
2023-02-20T15:02:55.288Z,9.32
2023-02-20T15:05:31.453Z,9.27
2023-02-20T15:08:21.905Z,9.27
2023-02-20T15:10:56.767Z,9.26
2023-02-20T15:13:26.938Z,9.26
2023-02-20T15:16:06.234Z,9.30
2023-02-20T15:18:39.107Z,9.18
2023-02-20T15:21:06.410Z,9.14
2023-02-20T15:23:35.243Z,9.17
2023-02-20T15:26:34.192Z,9.18
2023-02-20T15:29:21.866Z,9.27
2023-02-20T15:32:04.506Z,9.24
2023-02-20T15:34:34.883Z,9.18
2023-02-20T15:37:02.721Z,9.21
2023-02-20T15:39:29.340Z,9.19
2023-02-20T15:41:56.179Z,9.20
2023-02-20T15:44:22.549Z,9.19
2023-02-20T15:46:48.928Z,9.25
2023-02-20T15:49:20.416Z,9.18
2023-02-20T15:51:52.419Z,9.18
2023-02-20T15:54:20.783Z,9.17
2023-02-20T15:56:47.331Z,9.01
2023-02-20T15:59:14.520Z,9.10
2023-02-20T16:01:41.066Z,9.08
2023-02-20T16:04:08.638Z,9.04
2023-02-20T16:06:35.367Z,9.06
2023-02-20T16:09:02.054Z,9.06
2023-02-20T16:11:45.145Z,9.04
2023-02-20T16:14:15.103Z,9.08
2023-02-20T16:16:43.839Z,9.09
2023-02-20T16:19:21.211Z,9.06
2023-02-20T16:21:58.841Z,9.04
2023-02-20T16:24:25.847Z,9.09
2023-02-20T16:26:52.445Z,9.08
2023-02-20T16:29:32.516Z,9.08
2023-02-20T16:32:02.257Z,8.98
2023-02-20T16:34:30.903Z,8.92
2023-02-20T16:36:57.912Z,8.95
2023-02-20T16:39:27.263Z,9.00
2023-02-20T16:41:55.077Z,8.96
2023-02-20T16:44:35.678Z,8.93
2023-02-20T16:47:02.227Z,8.95
2023-02-20T16:49:28.650Z,8.97
2023-02-20T16:51:55.009Z,8.97
2023-02-20T16:54:21.367Z,8.95
2023-02-20T16:56:47.807Z,8.93
2023-02-20T16:59:14.197Z,8.89
2023-02-20T17:01:40.751Z,8.92
2023-02-20T17:04:07.258Z,8.90
2023-02-20T17:06:33.773Z,8.87
2023-02-20T17:09:00.310Z,8.88
2023-02-20T17:11:28.074Z,8.83
2023-02-20T17:13:54.396Z,8.80
2023-02-20T17:16:30.758Z,8.77
2023-02-20T17:18:57.558Z,8.78
2023-02-20T17:21:23.956Z,8.84
2023-02-20T17:23:50.487Z,8.79
2023-02-20T17:26:24.445Z,8.78
2023-02-20T17:28:52.662Z,8.75
2023-02-20T17:31:22.148Z,8.76
2023-02-20T17:33:48.580Z,8.75
2023-02-20T17:36:15.127Z,8.70
2023-02-20T17:38:43.719Z,8.69
2023-02-20T17:41:10.067Z,8.69
2023-02-20T17:43:38.556Z,8.73
2023-02-20T17:46:05.290Z,8.66
2023-02-20T17:48:31.905Z,8.71
2023-02-20T17:50:58.474Z,8.75
2023-02-20T17:53:25.115Z,8.73
2023-02-20T17:55:51.665Z,8.69
2023-02-20T17:58:18.728Z,8.64
2023-02-20T18:00:45.441Z,8.61
2023-02-20T18:03:12.533Z,8.63
2023-02-20T18:05:39.361Z,8.62
2023-02-20T18:08:05.908Z,8.61
2023-02-20T18:10:32.396Z,8.64
2023-02-20T18:12:59.024Z,8.58
2023-02-20T18:15:25.465Z,8.56
2023-02-20T18:17:52.004Z,8.51
2023-02-20T18:20:18.732Z,8.54
2023-02-20T18:22:45.093Z,8.53
2023-02-20T18:25:11.537Z,8.60
2023-02-20T18:27:38.224Z,8.58
2023-02-20T18:30:05.316Z,8.61
2023-02-20T18:32:31.953Z,8.56
2023-02-20T18:35:00.329Z,8.54
2023-02-20T18:37:26.723Z,8.53
2023-02-20T18:39:53.469Z,8.53
2023-02-20T18:42:19.962Z,8.54
2023-02-20T18:44:47.778Z,8.64
2023-02-20T18:47:15.474Z,8.57
2023-02-20T18:49:42.190Z,8.57
2023-02-20T18:52:12.573Z,8.58
2023-02-20T18:54:41.345Z,8.57
2023-02-20T18:57:07.777Z,8.56
2023-02-20T18:59:34.252Z,8.56
2023-02-20T19:02:00.685Z,8.63
2023-02-20T19:04:27.157Z,8.63
2023-02-20T19:06:53.902Z,8.57
2023-02-20T19:09:24.453Z,8.56
2023-02-20T19:11:56.177Z,8.56
2023-02-20T19:14:26.272Z,8.58
2023-02-20T19:16:58.495Z,8.57
2023-02-20T19:19:28.687Z,8.53
2023-02-20T19:21:55.448Z,8.54
2023-02-20T19:24:22.172Z,8.52
2023-02-20T19:26:49.005Z,8.52
2023-02-20T19:29:15.721Z,8.52
2023-02-20T19:31:44.703Z,8.56
2023-02-20T19:34:11.144Z,8.52
2023-02-20T19:36:41.393Z,8.54
2023-02-20T19:39:08.300Z,8.49
2023-02-20T19:41:34.859Z,8.53
2023-02-20T19:44:01.226Z,8.50
2023-02-20T19:46:27.609Z,8.50
2023-02-20T19:48:54.215Z,8.56
2023-02-20T19:51:21.098Z,8.50
2023-02-20T19:53:47.594Z,8.56
2023-02-20T19:56:15.177Z,8.51
2023-02-20T19:58:41.790Z,8.48
2023-02-20T20:01:11.640Z,8.49
2023-02-20T20:03:37.947Z,8.47
2023-02-20T20:06:08.716Z,8.51
2023-02-20T20:08:35.091Z,8.45
2023-02-20T20:11:01.506Z,8.51
2023-02-20T20:13:29.558Z,8.48
2023-02-20T20:15:56.360Z,8.48
2023-02-20T20:18:22.732Z,8.41
2023-02-20T20:20:49.294Z,8.51
2023-02-20T20:23:16.033Z,8.46
2023-02-20T20:25:43.402Z,8.48
2023-02-20T20:28:09.807Z,8.51
2023-02-20T20:30:37.528Z,8.48
2023-02-20T20:33:04.783Z,8.50
2023-02-20T20:35:31.402Z,8.53
2023-02-20T20:37:58.106Z,8.52
2023-02-20T20:40:25.267Z,8.51
2023-02-20T20:42:52.138Z,8.49
2023-02-20T20:45:20.251Z,8.48
2023-02-20T20:47:47.079Z,8.52
2023-02-20T20:50:16.179Z,8.51
2023-02-20T20:52:42.887Z,8.53
2023-02-20T20:55:09.929Z,8.61
2023-02-20T20:57:37.456Z,8.56
2023-02-20T21:00:06.353Z,8.55
2023-02-20T21:02:35.892Z,8.57
2023-02-20T21:05:11.249Z,8.58
2023-02-20T21:07:38.994Z,8.56
2023-02-20T21:10:07.930Z,8.59
2023-02-20T21:12:34.274Z,8.62
2023-02-20T21:15:01.059Z,8.57
2023-02-20T21:17:29.262Z,8.61
2023-02-20T21:19:55.652Z,8.57
2023-02-20T21:22:22.625Z,8.59
2023-02-20T21:24:49.050Z,8.62
2023-02-20T21:27:15.563Z,8.66
2023-02-20T21:29:42.083Z,8.65
2023-02-20T21:32:08.590Z,8.61
2023-02-20T21:34:34.956Z,8.63
2023-02-20T21:37:01.341Z,8.65
2023-02-20T21:39:27.710Z,8.66
2023-02-20T21:41:54.298Z,8.66
2023-02-20T21:44:23.177Z,8.65
2023-02-20T21:46:50.807Z,8.65
2023-02-20T21:49:19.263Z,8.67
2023-02-20T21:51:46.014Z,8.63
2023-02-20T21:54:13.003Z,8.67
2023-02-20T21:56:39.577Z,8.71
2023-02-20T21:59:06.484Z,8.68
2023-02-20T22:01:36.400Z,8.67
2023-02-20T22:04:04.353Z,8.70
2023-02-20T22:06:30.749Z,8.67
2023-02-20T22:08:57.475Z,8.67
2023-02-20T22:11:23.857Z,8.67
2023-02-20T22:13:50.202Z,8.73
2023-02-20T22:16:20.790Z,8.68
2023-02-20T22:18:47.089Z,8.68
2023-02-20T22:21:21.561Z,8.65
2023-02-20T22:23:47.879Z,8.67
2023-02-20T22:26:15.778Z,8.62
2023-02-20T22:28:42.149Z,8.62
2023-02-20T22:31:08.795Z,8.64
2023-02-20T22:33:35.341Z,8.62
2023-02-20T22:36:01.759Z,8.65
2023-02-20T22:38:28.114Z,8.64
2023-02-20T22:40:54.710Z,8.61
2023-02-20T22:43:21.052Z,8.64
2023-02-20T22:45:47.489Z,8.63
2023-02-20T22:48:14.249Z,8.64
2023-02-20T22:50:40.633Z,8.57
2023-02-20T22:53:07.027Z,8.61
2023-02-20T22:55:33.703Z,8.57
2023-02-20T22:58:00.096Z,8.58
2023-02-20T23:00:26.599Z,8.55
2023-02-20T23:02:52.996Z,8.53
2023-02-20T23:05:20.937Z,8.53
2023-02-20T23:07:47.287Z,8.49
2023-02-20T23:10:14.034Z,8.53
2023-02-20T23:12:40.429Z,8.49
2023-02-20T23:15:07.141Z,8.52
2023-02-20T23:17:36.904Z,8.48
2023-02-20T23:20:10.546Z,8.51
2023-02-20T23:22:36.874Z,8.48
2023-02-20T23:25:03.641Z,8.48
2023-02-20T23:27:30.048Z,8.48
2023-02-20T23:29:56.471Z,8.49
2023-02-20T23:32:23.413Z,8.48
2023-02-20T23:34:50.505Z,8.51
2023-02-20T23:37:17.121Z,8.47
2023-02-20T23:39:44.790Z,8.46
2023-02-20T23:42:11.160Z,8.45
2023-02-20T23:44:37.836Z,8.52
2023-02-20T23:47:04.265Z,8.44
2023-02-20T23:49:30.697Z,8.46
2023-02-20T23:52:02.866Z,8.48
2023-02-20T23:54:34.654Z,8.51
2023-02-20T23:57:01.083Z,8.55
2023-02-20T23:59:27.586Z,8.49
